sensor_id;sensor_type;location;lat;lon;timestamp;pressure;altitude;pressure_sealevel;temperature;humidity
71638;BME280;59485;43.542;-5.676;2022-08-18T00:02:23;101920.84;;;16.09;100.00
71638;BME280;59485;43.542;-5.676;2022-08-18T00:04:50;101938.56;;;16.15;100.00
71638;BME280;59485;43.542;-5.676;2022-08-18T00:07:22;101934.47;;;16.11;100.00
71638;BME280;59485;43.542;-5.676;2022-08-18T00:09:48;101950.53;;;16.22;100.00
71638;BME280;59485;43.542;-5.676;2022-08-18T00:12:17;101954.34;;;16.21;100.00
71638;BME280;59485;43.542;-5.676;2022-08-18T00:14:44;101948.38;;;16.18;100.00
71638;BME280;59485;43.542;-5.676;2022-08-18T00:17:11;101937.44;;;16.09;100.00
71638;BME280;59485;43.542;-5.676;2022-08-18T00:19:37;101957.31;;;16.20;100.00
71638;BME280;59485;43.542;-5.676;2022-08-18T00:22:02;101961.34;;;16.17;100.00
71638;BME280;59485;43.542;-5.676;2022-08-18T00:24:28;101943.41;;;16.13;100.00
71638;BME280;59485;43.542;-5.676;2022-08-18T00:26:55;101953.25;;;16.16;100.00
71638;BME280;59485;43.542;-5.676;2022-08-18T00:29:22;101949.44;;;16.17;100.00
71638;BME280;59485;43.542;-5.676;2022-08-18T00:31:48;101957.72;;;16.17;100.00
71638;BME280;59485;43.542;-5.676;2022-08-18T00:34:14;101934.41;;;16.04;100.00
71638;BME280;59485;43.542;-5.676;2022-08-18T00:36:40;101951.78;;;16.20;100.00
71638;BME280;59485;43.542;-5.676;2022-08-18T00:39:06;101959.50;;;16.24;100.00
71638;BME280;59485;43.542;-5.676;2022-08-18T00:41:32;101922.28;;;16.05;100.00
71638;BME280;59485;43.542;-5.676;2022-08-18T00:43:57;101934.25;;;16.12;100.00
71638;BME280;59485;43.542;-5.676;2022-08-18T00:46:27;101964.03;;;16.32;100.00
71638;BME280;59485;43.542;-5.676;2022-08-18T00:48:54;101914.00;;;16.05;100.00
71638;BME280;59485;43.542;-5.676;2022-08-18T00:51:22;101961.53;;;16.37;100.00
71638;BME280;59485;43.542;-5.676;2022-08-18T00:54:02;101945.72;;;16.31;100.00
71638;BME280;59485;43.542;-5.676;2022-08-18T00:56:34;101953.44;;;16.35;100.00
71638;BME280;59485;43.542;-5.676;2022-08-18T00:59:07;101956.63;;;16.39;100.00
71638;BME280;59485;43.542;-5.676;2022-08-18T01:01:35;101949.75;;;16.28;100.00
71638;BME280;59485;43.542;-5.676;2022-08-18T01:04:11;101926.81;;;16.13;100.00
71638;BME280;59485;43.542;-5.676;2022-08-18T01:06:42;101959.41;;;16.39;100.00
71638;BME280;59485;43.542;-5.676;2022-08-18T01:09:09;101963.44;;;16.36;100.00
71638;BME280;59485;43.542;-5.676;2022-08-18T01:11:36;101967.28;;;16.35;100.00
71638;BME280;59485;43.542;-5.676;2022-08-18T01:14:07;101939.47;;;16.22;99.96
71638;BME280;59485;43.542;-5.676;2022-08-18T01:16:33;101966.00;;;16.38;99.69
71638;BME280;59485;43.542;-5.676;2022-08-18T01:19:18;101948.66;;;16.29;100.00
71638;BME280;59485;43.542;-5.676;2022-08-18T01:23:08;101964.31;;;16.37;98.45
71638;BME280;59485;43.542;-5.676;2022-08-18T01:25:05;101968.56;;;16.39;99.17
71638;BME280;59485;43.542;-5.676;2022-08-18T01:27:50;101949.09;;;16.26;94.60
71638;BME280;59485;43.542;-5.676;2022-08-18T01:30:17;101967.31;;;16.42;93.03
71638;BME280;59485;43.542;-5.676;2022-08-18T01:32:51;101944.06;;;16.36;92.60
71638;BME280;59485;43.542;-5.676;2022-08-18T01:35:17;101955.00;;;16.44;89.49
71638;BME280;59485;43.542;-5.676;2022-08-18T01:37:45;101940.03;;;16.39;92.97
71638;BME280;59485;43.542;-5.676;2022-08-18T01:40:13;101940.88;;;16.39;88.36
71638;BME280;59485;43.542;-5.676;2022-08-18T01:42:39;101957.00;;;16.57;84.37
71638;BME280;59485;43.542;-5.676;2022-08-18T01:45:08;101933.38;;;16.55;87.51
71638;BME280;59485;43.542;-5.676;2022-08-18T01:47:34;101951.06;;;16.60;83.57
71638;BME280;59485;43.542;-5.676;2022-08-18T01:52:39;101906.44;;;16.42;89.91
71638;BME280;59485;43.542;-5.676;2022-08-18T01:55:08;101898.22;;;16.27;89.97
71638;BME280;59485;43.542;-5.676;2022-08-18T01:57:38;101866.88;;;16.20;92.90
71638;BME280;59485;43.542;-5.676;2022-08-18T02:00:15;101916.25;;;16.44;93.57
71638;BME280;59485;43.542;-5.676;2022-08-18T02:02:41;101916.25;;;16.44;95.48
71638;BME280;59485;43.542;-5.676;2022-08-18T02:05:17;101947.44;;;16.60;94.84
71638;BME280;59485;43.542;-5.676;2022-08-18T02:07:44;101920.72;;;16.45;90.19
71638;BME280;59485;43.542;-5.676;2022-08-18T02:10:11;101913.00;;;16.41;90.71
71638;BME280;59485;43.542;-5.676;2022-08-18T02:12:38;101931.22;;;16.57;92.95
71638;BME280;59485;43.542;-5.676;2022-08-18T02:15:05;101941.06;;;16.59;95.86
71638;BME280;59485;43.542;-5.676;2022-08-18T02:17:44;101911.44;;;16.32;96.49
71638;BME280;59485;43.542;-5.676;2022-08-18T02:20:13;101928.09;;;16.38;97.47
71638;BME280;59485;43.542;-5.676;2022-08-18T02:22:39;101924.44;;;16.31;97.44
71638;BME280;59485;43.542;-5.676;2022-08-18T02:25:05;101927.00;;;16.33;98.49
71638;BME280;59485;43.542;-5.676;2022-08-18T02:27:31;101929.78;;;16.33;98.54
71638;BME280;59485;43.542;-5.676;2022-08-18T02:29:59;101935.69;;;16.30;97.67
71638;BME280;59485;43.542;-5.676;2022-08-18T02:32:25;101912.78;;;16.14;96.65
71638;BME280;59485;43.542;-5.676;2022-08-18T02:34:50;101886.47;;;15.97;97.35
71638;BME280;59485;43.542;-5.676;2022-08-18T02:37:16;101939.50;;;16.29;97.59
71638;BME280;59485;43.542;-5.676;2022-08-18T02:39:41;101942.50;;;16.27;97.53
71638;BME280;59485;43.542;-5.676;2022-08-18T02:42:07;101937.75;;;16.21;97.02
71638;BME280;59485;43.542;-5.676;2022-08-18T02:44:34;101938.22;;;16.25;96.98
71638;BME280;59485;43.542;-5.676;2022-08-18T02:46:59;101907.59;;;16.05;96.89
71638;BME280;59485;43.542;-5.676;2022-08-18T02:49:25;101934.53;;;16.18;97.10
71638;BME280;59485;43.542;-5.676;2022-08-18T02:51:51;101938.34;;;16.17;97.05
71638;BME280;59485;43.542;-5.676;2022-08-18T02:54:21;101938.75;;;16.13;96.42
71638;BME280;59485;43.542;-5.676;2022-08-18T02:56:48;101934.06;;;16.14;97.38
71638;BME280;59485;43.542;-5.676;2022-08-18T02:59:20;101926.09;;;16.04;97.08
71638;BME280;59485;43.542;-5.676;2022-08-18T03:01:50;101924.47;;;16.10;97.35
71638;BME280;59485;43.542;-5.676;2022-08-18T03:04:19;101927.16;;;16.03;95.76
71638;BME280;59485;43.542;-5.676;2022-08-18T03:06:45;101921.44;;;16.05;95.40
71638;BME280;59485;43.542;-5.676;2022-08-18T03:09:13;101930.19;;;16.08;95.20
71638;BME280;59485;43.542;-5.676;2022-08-18T03:11:39;101932.97;;;16.08;95.85
71638;BME280;59485;43.542;-5.676;2022-08-18T03:14:05;101935.72;;;16.08;96.31
71638;BME280;59485;43.542;-5.676;2022-08-18T03:16:30;101907.94;;;15.95;95.86
71638;BME280;59485;43.542;-5.676;2022-08-18T03:18:58;101925.25;;;16.04;95.41
71638;BME280;59485;43.542;-5.676;2022-08-18T03:21:27;101932.88;;;16.02;94.21
71638;BME280;59485;43.542;-5.676;2022-08-18T03:23:54;101889.50;;;15.81;95.04
71638;BME280;59485;43.542;-5.676;2022-08-18T03:26:21;101935.72;;;16.08;96.02
71638;BME280;59485;43.542;-5.676;2022-08-18T03:28:51;101937.44;;;16.09;95.95
71638;BME280;59485;43.542;-5.676;2022-08-18T03:31:19;101940.84;;;16.11;96.31
71638;BME280;59485;43.542;-5.676;2022-08-18T03:33:45;101945.31;;;16.12;96.39
71638;BME280;59485;43.542;-5.676;2022-08-18T03:36:17;101938.75;;;16.13;96.39
71638;BME280;59485;43.542;-5.676;2022-08-18T03:38:44;101926.38;;;16.09;96.07
71638;BME280;59485;43.542;-5.676;2022-08-18T03:41:11;101934.72;;;16.16;94.77
71638;BME280;59485;43.542;-5.676;2022-08-18T03:43:38;101937.31;;;16.18;94.66
71638;BME280;59485;43.542;-5.676;2022-08-18T03:46:06;101938.34;;;16.17;94.86
71638;BME280;59485;43.542;-5.676;2022-08-18T03:48:38;101928.72;;;16.12;94.52
71638;BME280;59485;43.542;-5.676;2022-08-18T03:51:10;101928.28;;;16.09;94.33
71638;BME280;59485;43.542;-5.676;2022-08-18T03:53:38;101930.00;;;16.10;93.86
71638;BME280;59485;43.542;-5.676;2022-08-18T03:56:09;101946.66;;;16.17;92.53
71638;BME280;59485;43.542;-5.676;2022-08-18T03:58:43;101932.16;;;16.14;92.34
71638;BME280;59485;43.542;-5.676;2022-08-18T04:01:17;101946.66;;;16.17;91.97
71638;BME280;59485;43.542;-5.676;2022-08-18T04:03:44;101935.72;;;16.08;92.12
71638;BME280;59485;43.542;-5.676;2022-08-18T04:06:22;101953.06;;;16.17;91.33
71638;BME280;59485;43.542;-5.676;2022-08-18T04:08:56;101951.13;;;16.18;89.99
71638;BME280;59485;43.542;-5.676;2022-08-18T04:11:23;101928.88;;;16.04;90.07
71638;BME280;59485;43.542;-5.676;2022-08-18T04:13:49;101960.06;;;16.20;90.08
71638;BME280;59485;43.542;-5.676;2022-08-18T04:16:15;101935.94;;;16.07;90.19
71638;BME280;59485;43.542;-5.676;2022-08-18T04:18:41;101951.13;;;16.18;90.14
71638;BME280;59485;43.542;-5.676;2022-08-18T04:21:11;101956.25;;;16.21;90.30
71638;BME280;59485;43.542;-5.676;2022-08-18T04:23:39;101947.03;;;16.13;90.47
71638;BME280;59485;43.542;-5.676;2022-08-18T04:26:06;101949.63;;;16.15;90.30
71638;BME280;59485;43.542;-5.676;2022-08-18T04:28:33;101938.50;;;16.08;90.55
71638;BME280;59485;43.542;-5.676;2022-08-18T04:31:05;101956.88;;;16.16;90.32
71638;BME280;59485;43.542;-5.676;2022-08-18T04:33:31;101918.31;;;15.93;90.00
71638;BME280;59485;43.542;-5.676;2022-08-18T04:35:56;101920.50;;;15.98;89.51
71638;BME280;59485;43.542;-5.676;2022-08-18T04:38:22;101956.38;;;16.12;88.69
71638;BME280;59485;43.542;-5.676;2022-08-18T04:40:48;101947.03;;;16.13;88.23
71638;BME280;59485;43.542;-5.676;2022-08-18T04:43:14;101943.84;;;16.10;88.54
71638;BME280;59485;43.542;-5.676;2022-08-18T04:45:41;101929.72;;;16.05;88.51
71638;BME280;59485;43.542;-5.676;2022-08-18T04:48:09;101921.81;;;16.02;88.64
71638;BME280;59485;43.542;-5.676;2022-08-18T04:50:37;101934.41;;;16.04;88.56
71638;BME280;59485;43.542;-5.676;2022-08-18T04:53:05;101936.97;;;16.06;88.40
71638;BME280;59485;43.542;-5.676;2022-08-18T04:55:51;101949.38;;;16.10;88.58
71638;BME280;59485;43.542;-5.676;2022-08-18T04:58:17;101924.13;;;15.98;88.65
71638;BME280;59485;43.542;-5.676;2022-08-18T05:00:55;101950.63;;;16.07;88.94
71638;BME280;59485;43.542;-5.676;2022-08-18T05:03:21;101953.75;;;16.04;88.78
71638;BME280;59485;43.542;-5.676;2022-08-18T05:05:54;101952.03;;;16.03;88.87
71638;BME280;59485;43.542;-5.676;2022-08-18T05:08:20;101953.09;;;16.02;88.87
71638;BME280;59485;43.542;-5.676;2022-08-18T05:10:47;101941.13;;;15.95;88.59
71638;BME280;59485;43.542;-5.676;2022-08-18T05:13:16;101950.34;;;16.02;88.23
71638;BME280;59485;43.542;-5.676;2022-08-18T05:15:42;101946.25;;;15.98;88.69
71638;BME280;59485;43.542;-5.676;2022-08-18T05:18:08;101956.53;;;16.04;87.98
71638;BME280;59485;43.542;-5.676;2022-08-18T05:20:36;101940.06;;;15.96;88.56
71638;BME280;59485;43.542;-5.676;2022-08-18T05:23:04;101954.63;;;16.05;88.52
71638;BME280;59485;43.542;-5.676;2022-08-18T05:25:30;101949.47;;;16.02;88.03
71638;BME280;59485;43.542;-5.676;2022-08-18T05:27:55;101945.59;;;15.96;88.23
71638;BME280;59485;43.542;-5.676;2022-08-18T05:30:21;101941.53;;;15.92;88.27
71638;BME280;59485;43.542;-5.676;2022-08-18T05:32:46;101940.88;;;15.90;88.23
71638;BME280;59485;43.542;-5.676;2022-08-18T05:35:20;101945.59;;;15.96;88.11
71638;BME280;59485;43.542;-5.676;2022-08-18T05:40:22;101970.84;;;16.08;87.97
71638;BME280;59485;43.542;-5.676;2022-08-18T05:42:49;101960.47;;;15.95;87.36
71638;BME280;59485;43.542;-5.676;2022-08-18T05:45:17;101971.69;;;16.08;87.26
71638;BME280;59485;43.542;-5.676;2022-08-18T05:47:44;101958.38;;;15.97;87.00
71638;BME280;59485;43.542;-5.676;2022-08-18T05:50:12;101980.44;;;16.12;87.20
71638;BME280;59485;43.542;-5.676;2022-08-18T05:55:30;101968.19;;;16.00;86.73
71638;BME280;59485;43.542;-5.676;2022-08-18T05:58:36;101993.22;;;16.13;86.22
71638;BME280;59485;43.542;-5.676;2022-08-18T06:01:19;101973.72;;;16.00;86.43
71638;BME280;59485;43.542;-5.676;2022-08-18T06:04:56;101996.41;;;16.10;86.34
71638;BME280;59485;43.542;-5.676;2022-08-18T06:07:04;101982.47;;;16.03;86.43
71638;BME280;59485;43.542;-5.676;2022-08-18T06:09:38;101998.94;;;16.11;86.54
71638;BME280;59485;43.542;-5.676;2022-08-18T06:12:21;101985.72;;;16.07;86.52
71638;BME280;59485;43.542;-5.676;2022-08-18T06:14:49;102001.50;;;16.13;86.50
71638;BME280;59485;43.542;-5.676;2022-08-18T06:17:24;102009.25;;;16.18;86.68
71638;BME280;59485;43.542;-5.676;2022-08-18T06:20:03;101989.16;;;16.09;86.35
71638;BME280;59485;43.542;-5.676;2022-08-18T06:23:02;102007.97;;;16.20;86.14
71638;BME280;59485;43.542;-5.676;2022-08-18T06:28:20;102003.72;;;16.18;85.53
71638;BME280;59485;43.542;-5.676;2022-08-18T06:33:47;101996.72;;;16.22;84.48
71638;BME280;59485;43.542;-5.676;2022-08-18T06:39:44;102012.41;;;16.36;83.81
71638;BME280;59485;43.542;-5.676;2022-08-18T06:42:10;102019.25;;;16.40;83.55
71638;BME280;59485;43.542;-5.676;2022-08-18T06:45:04;102015.91;;;16.44;83.33
71638;BME280;59485;43.542;-5.676;2022-08-18T06:47:38;102014.63;;;16.47;82.40
71638;BME280;59485;43.542;-5.676;2022-08-18T06:53:01;102008.97;;;16.55;82.06
71638;BME280;59485;43.542;-5.676;2022-08-18T06:55:42;102013.41;;;16.56;81.57
71638;BME280;59485;43.542;-5.676;2022-08-18T07:00:43;102009.22;;;16.60;82.07
71638;BME280;59485;43.542;-5.676;2022-08-18T07:03:21;102006.63;;;16.59;81.42
71638;BME280;59485;43.542;-5.676;2022-08-18T07:06:04;102023.59;;;16.70;80.92
71638;BME280;59485;43.542;-5.676;2022-08-18T07:08:34;102033.22;;;16.74;80.60
71638;BME280;59485;43.542;-5.676;2022-08-18T07:13:42;102023.41;;;16.72;80.76
71638;BME280;59485;43.542;-5.676;2022-08-18T07:18:53;102034.53;;;16.78;80.78
71638;BME280;59485;43.542;-5.676;2022-08-18T07:21:31;102039.03;;;16.79;80.12
71638;BME280;59485;43.542;-5.676;2022-08-18T07:29:22;102031.09;;;16.76;79.64
71638;BME280;59485;43.542;-5.676;2022-08-18T07:31:51;102039.22;;;16.78;79.44
71638;BME280;59485;43.542;-5.676;2022-08-18T07:34:22;102043.94;;;16.84;79.70
71638;BME280;59485;43.542;-5.676;2022-08-18T07:39:44;102043.31;;;16.82;79.61
71638;BME280;59485;43.542;-5.676;2022-08-18T07:45:05;102046.41;;;16.72;79.54
71638;BME280;59485;43.542;-5.676;2022-08-18T07:47:46;102053.66;;;16.73;79.55
71638;BME280;59485;43.542;-5.676;2022-08-18T07:50:14;102064.13;;;16.78;79.55
71638;BME280;59485;43.542;-5.676;2022-08-18T07:53:04;102035.38;;;16.58;79.70
71638;BME280;59485;43.542;-5.676;2022-08-18T07:55:35;102067.75;;;16.78;79.58
71638;BME280;59485;43.542;-5.676;2022-08-18T08:03:35;102072.91;;;16.81;79.10
71638;BME280;59485;43.542;-5.676;2022-08-18T08:19:55;102069.53;;;16.86;77.96
71638;BME280;59485;43.542;-5.676;2022-08-18T08:22:39;102074.91;;;16.94;77.58
71638;BME280;59485;43.542;-5.676;2022-08-18T08:30:15;102082.72;;;17.12;76.73
71638;BME280;59485;43.542;-5.676;2022-08-18T08:38:11;102088.31;;;17.18;76.24
71638;BME280;59485;43.542;-5.676;2022-08-18T08:40:46;102088.19;;;17.27;76.17
71638;BME280;59485;43.542;-5.676;2022-08-18T08:43:18;102096.28;;;17.28;75.55
71638;BME280;59485;43.542;-5.676;2022-08-18T08:46:11;102079.16;;;17.18;75.65
71638;BME280;59485;43.542;-5.676;2022-08-18T08:48:47;102095.88;;;17.31;75.87
71638;BME280;59485;43.542;-5.676;2022-08-18T08:51:30;102097.59;;;17.32;75.18
71638;BME280;59485;43.542;-5.676;2022-08-18T08:54:05;102094.81;;;17.32;75.02
71638;BME280;59485;43.542;-5.676;2022-08-18T08:56:39;102101.44;;;17.31;75.15
71638;BME280;59485;43.542;-5.676;2022-08-18T08:59:09;102104.00;;;17.33;74.93
71638;BME280;59485;43.542;-5.676;2022-08-18T09:07:55;102116.03;;;17.46;74.33
71638;BME280;59485;43.542;-5.676;2022-08-18T09:10:47;102121.19;;;17.49;74.13
71638;BME280;59485;43.542;-5.676;2022-08-18T09:23:43;102121.66;;;17.59;73.51
71638;BME280;59485;43.542;-5.676;2022-08-18T09:31:44;102138.41;;;17.73;73.55
71638;BME280;59485;43.542;-5.676;2022-08-18T09:37:24;102139.34;;;17.86;72.59
71638;BME280;59485;43.542;-5.676;2022-08-18T09:40:08;102146.44;;;17.89;73.10
71638;BME280;59485;43.542;-5.676;2022-08-18T09:43:20;102134.25;;;17.90;73.28
71638;BME280;59485;43.542;-5.676;2022-08-18T09:45:55;102137.69;;;17.98;72.82
71638;BME280;59485;43.542;-5.676;2022-08-18T09:48:30;102136.03;;;18.04;71.89
71638;BME280;59485;43.542;-5.676;2022-08-18T10:01:59;102115.19;;;18.28;70.53
71638;BME280;59485;43.542;-5.676;2022-08-18T10:04:28;102122.28;;;18.44;69.62
71638;BME280;59485;43.542;-5.676;2022-08-18T10:07:20;102146.31;;;18.58;68.80
71638;BME280;59485;43.542;-5.676;2022-08-18T10:21:21;102145.28;;;18.92;65.25
71638;BME280;59485;43.542;-5.676;2022-08-18T10:31:21;102150.88;;;19.11;64.48
71638;BME280;59485;43.542;-5.676;2022-08-18T10:36:46;102151.72;;;19.19;64.07
71638;BME280;59485;43.542;-5.676;2022-08-18T10:42:11;102148.94;;;19.38;65.10
71638;BME280;59485;43.542;-5.676;2022-08-18T10:44:46;102134.81;;;19.33;64.84
71638;BME280;59485;43.542;-5.676;2022-08-18T10:47:25;102139.50;;;19.46;64.86
71638;BME280;59485;43.542;-5.676;2022-08-18T10:49:51;102122.66;;;19.47;64.94
71638;BME280;59485;43.542;-5.676;2022-08-18T10:55:14;102133.72;;;19.74;63.69
71638;BME280;59485;43.542;-5.676;2022-08-18T11:00:59;102145.47;;;19.82;62.46
71638;BME280;59485;43.542;-5.676;2022-08-18T11:06:06;102143.53;;;19.90;63.30
71638;BME280;59485;43.542;-5.676;2022-08-18T11:08:43;102140.09;;;19.94;63.55
71638;BME280;59485;43.542;-5.676;2022-08-18T11:11:11;102144.97;;;20.05;63.06
71638;BME280;59485;43.542;-5.676;2022-08-18T11:14:08;102150.53;;;20.12;62.67
71638;BME280;59485;43.542;-5.676;2022-08-18T11:16:49;102147.88;;;20.23;64.01
71638;BME280;59485;43.542;-5.676;2022-08-18T11:19:19;102156.44;;;20.29;62.33
71638;BME280;59485;43.542;-5.676;2022-08-18T11:21:49;102148.50;;;20.39;62.39
71638;BME280;59485;43.542;-5.676;2022-08-18T11:24:24;102142.69;;;20.40;62.14
71638;BME280;59485;43.542;-5.676;2022-08-18T11:26:57;102149.53;;;20.44;60.01
71638;BME280;59485;43.542;-5.676;2022-08-18T11:29:38;102145.69;;;20.32;59.88
71638;BME280;59485;43.542;-5.676;2022-08-18T11:32:05;102158.59;;;20.40;59.77
71638;BME280;59485;43.542;-5.676;2022-08-18T11:34:36;102158.34;;;20.41;59.32
71638;BME280;59485;43.542;-5.676;2022-08-18T11:37:06;102139.38;;;20.12;60.16
71638;BME280;59485;43.542;-5.676;2022-08-18T11:39:41;102150.28;;;20.20;59.93
71638;BME280;59485;43.542;-5.676;2022-08-18T11:42:08;102163.94;;;20.28;60.78
71638;BME280;59485;43.542;-5.676;2022-08-18T11:44:35;102161.59;;;20.38;60.37
71638;BME280;59485;43.542;-5.676;2022-08-18T11:47:17;102131.38;;;20.29;61.12
71638;BME280;59485;43.542;-5.676;2022-08-18T11:49:55;102158.78;;;20.32;60.55
71638;BME280;59485;43.542;-5.676;2022-08-18T11:52:26;102135.28;;;20.14;60.35
71638;BME280;59485;43.542;-5.676;2022-08-18T11:54:58;102151.25;;;20.45;60.41
71638;BME280;59485;43.542;-5.676;2022-08-18T11:57:38;102152.50;;;20.49;60.62
71638;BME280;59485;43.542;-5.676;2022-08-18T12:03:30;102158.50;;;20.53;60.73
71638;BME280;59485;43.542;-5.676;2022-08-18T12:06:31;102170.69;;;20.01;62.94
71638;BME280;59485;43.542;-5.676;2022-08-18T12:09:34;102170.28;;;19.91;62.68
71638;BME280;59485;43.542;-5.676;2022-08-18T12:12:00;102164.16;;;19.49;63.91
71638;BME280;59485;43.542;-5.676;2022-08-18T12:14:30;102170.56;;;19.56;63.70
71638;BME280;59485;43.542;-5.676;2022-08-18T12:16:56;102167.75;;;19.63;64.09
71638;BME280;59485;43.542;-5.676;2022-08-18T12:19:23;102160.94;;;19.59;63.80
71638;BME280;59485;43.542;-5.676;2022-08-18T12:21:58;102144.63;;;19.75;64.41
71638;BME280;59485;43.542;-5.676;2022-08-18T12:24:28;102166.63;;;19.90;64.48
71638;BME280;59485;43.542;-5.676;2022-08-18T12:26:54;102160.28;;;19.76;65.03
71638;BME280;59485;43.542;-5.676;2022-08-18T12:29:20;102152.59;;;19.39;65.48
71638;BME280;59485;43.542;-5.676;2022-08-18T12:31:49;102172.91;;;19.66;65.34
71638;BME280;59485;43.542;-5.676;2022-08-18T12:34:17;102164.59;;;19.59;63.83
71638;BME280;59485;43.542;-5.676;2022-08-18T12:36:44;102170.53;;;19.69;63.84
71638;BME280;59485;43.542;-5.676;2022-08-18T12:39:09;102158.75;;;19.74;63.69
71638;BME280;59485;43.542;-5.676;2022-08-18T12:41:35;102149.72;;;19.92;63.06
71638;BME280;59485;43.542;-5.676;2022-08-18T12:44:00;102156.13;;;19.99;62.37
71638;BME280;59485;43.542;-5.676;2022-08-18T12:46:28;102142.41;;;19.97;61.53
71638;BME280;59485;43.542;-5.676;2022-08-18T12:48:54;102162.25;;;20.27;63.86
71638;BME280;59485;43.542;-5.676;2022-08-18T12:51:19;102150.66;;;20.30;61.80
71638;BME280;59485;43.542;-5.676;2022-08-18T12:53:45;102158.16;;;20.30;62.67
71638;BME280;59485;43.542;-5.676;2022-08-18T12:56:31;102163.50;;;20.38;62.91
71638;BME280;59485;43.542;-5.676;2022-08-18T12:58:58;102166.81;;;20.59;62.47
71638;BME280;59485;43.542;-5.676;2022-08-18T13:01:24;102144.03;;;20.38;61.46
71638;BME280;59485;43.542;-5.676;2022-08-18T13:03:51;102150.84;;;20.42;61.12
71638;BME280;59485;43.542;-5.676;2022-08-18T13:06:19;102136.47;;;20.45;62.67
71638;BME280;59485;43.542;-5.676;2022-08-18T13:08:47;102148.38;;;20.65;61.77
71638;BME280;59485;43.542;-5.676;2022-08-18T13:11:12;102148.31;;;20.72;62.95
71638;BME280;59485;43.542;-5.676;2022-08-18T13:13:38;102154.91;;;20.84;61.03
71638;BME280;59485;43.542;-5.676;2022-08-18T13:16:06;102148.63;;;20.88;61.04
71638;BME280;59485;43.542;-5.676;2022-08-18T13:18:36;102150.84;;;20.80;60.96
71638;BME280;59485;43.542;-5.676;2022-08-18T13:21:03;102149.50;;;20.89;60.15
71638;BME280;59485;43.542;-5.676;2022-08-18T13:23:29;102147.19;;;21.11;62.55
71638;BME280;59485;43.542;-5.676;2022-08-18T13:25:58;102140.88;;;21.22;62.12
71638;BME280;59485;43.542;-5.676;2022-08-18T13:28:24;102135.94;;;21.24;61.88
71638;BME280;59485;43.542;-5.676;2022-08-18T13:30:49;102135.28;;;21.28;62.93
71638;BME280;59485;43.542;-5.676;2022-08-18T13:33:16;102139.63;;;21.43;62.54
71638;BME280;59485;43.542;-5.676;2022-08-18T13:35:44;102136.22;;;21.41;61.40
71638;BME280;59485;43.542;-5.676;2022-08-18T13:38:14;102138.97;;;21.47;62.00
71638;BME280;59485;43.542;-5.676;2022-08-18T13:40:40;102137.03;;;21.66;60.28
71638;BME280;59485;43.542;-5.676;2022-08-18T13:43:08;102139.69;;;21.61;61.08
71638;BME280;59485;43.542;-5.676;2022-08-18T13:45:34;102143.81;;;21.33;59.67
71638;BME280;59485;43.542;-5.676;2022-08-18T13:47:59;102141.63;;;21.11;61.13
71638;BME280;59485;43.542;-5.676;2022-08-18T13:50:25;102141.84;;;21.09;61.98
71638;BME280;59485;43.542;-5.676;2022-08-18T13:52:51;102113.97;;;20.78;61.81
71638;BME280;59485;43.542;-5.676;2022-08-18T13:55:17;102129.69;;;20.97;60.28
71638;BME280;59485;43.542;-5.676;2022-08-18T13:57:44;102123.81;;;20.80;60.01
71638;BME280;59485;43.542;-5.676;2022-08-18T14:00:16;102128.97;;;20.77;60.33
71638;BME280;59485;43.542;-5.676;2022-08-18T14:02:42;102136.09;;;20.73;61.41
71638;BME280;59485;43.542;-5.676;2022-08-18T14:05:08;102130.91;;;20.76;60.42
71638;BME280;59485;43.542;-5.676;2022-08-18T14:07:37;102126.16;;;20.83;60.47
71638;BME280;59485;43.542;-5.676;2022-08-18T14:10:04;102133.13;;;20.99;61.10
71638;BME280;59485;43.542;-5.676;2022-08-18T14:12:34;102129.81;;;20.84;60.01
71638;BME280;59485;43.542;-5.676;2022-08-18T14:15:00;102132.03;;;20.69;61.35
71638;BME280;59485;43.542;-5.676;2022-08-18T14:17:26;102125.69;;;20.86;62.16
71638;BME280;59485;43.542;-5.676;2022-08-18T14:19:53;102118.47;;;20.79;59.83
71638;BME280;59485;43.542;-5.676;2022-08-18T14:22:37;102108.97;;;20.86;60.83
71638;BME280;59485;43.542;-5.676;2022-08-18T14:25:21;102128.91;;;20.90;61.05
71638;BME280;59485;43.542;-5.676;2022-08-18T14:28:05;102122.88;;;20.62;62.25
71638;BME280;59485;43.542;-5.676;2022-08-18T14:30:34;102111.31;;;20.89;60.59
71638;BME280;59485;43.542;-5.676;2022-08-18T14:33:00;102117.75;;;20.90;60.56
71638;BME280;59485;43.542;-5.676;2022-08-18T14:35:25;102123.03;;;20.73;60.40
71638;BME280;59485;43.542;-5.676;2022-08-18T14:37:51;102110.69;;;20.56;61.53
71638;BME280;59485;43.542;-5.676;2022-08-18T14:40:17;102118.66;;;20.84;61.62
71638;BME280;59485;43.542;-5.676;2022-08-18T14:42:44;102126.25;;;20.70;58.57
71638;BME280;59485;43.542;-5.676;2022-08-18T14:45:10;102112.81;;;20.92;59.53
71638;BME280;59485;43.542;-5.676;2022-08-18T14:47:39;102121.34;;;20.66;60.46
71638;BME280;59485;43.542;-5.676;2022-08-18T14:50:08;102106.59;;;20.58;60.88
71638;BME280;59485;43.542;-5.676;2022-08-18T14:52:40;102115.25;;;20.82;61.42
71638;BME280;59485;43.542;-5.676;2022-08-18T14:55:08;102118.53;;;20.97;61.27
71638;BME280;59485;43.542;-5.676;2022-08-18T14:57:37;102112.66;;;20.80;61.25
71638;BME280;59485;43.542;-5.676;2022-08-18T15:00:05;102126.47;;;20.69;62.35
71638;BME280;59485;43.542;-5.676;2022-08-18T15:02:34;102113.50;;;20.56;60.78
71638;BME280;59485;43.542;-5.676;2022-08-18T15:05:00;102125.16;;;20.40;61.87
71638;BME280;59485;43.542;-5.676;2022-08-18T15:07:26;102118.41;;;20.54;62.40
71638;BME280;59485;43.542;-5.676;2022-08-18T15:09:52;102086.75;;;20.42;62.65
71638;BME280;59485;43.542;-5.676;2022-08-18T15:12:17;102116.97;;;20.76;62.92
71638;BME280;59485;43.542;-5.676;2022-08-18T15:14:43;102104.81;;;20.71;62.60
71638;BME280;59485;43.542;-5.676;2022-08-18T15:17:09;102116.22;;;20.63;62.92
71638;BME280;59485;43.542;-5.676;2022-08-18T15:19:37;102091.47;;;20.41;62.58